CDT,Max TemperatureF,Mean TemperatureF,Min TemperatureF,Max Dew PointF,MeanDew PointF,Min DewpointF,Max Humidity, Mean Humidity, Min Humidity, Max Sea Level PressureIn, Mean Sea Level PressureIn, Min Sea Level PressureIn, Max VisibilityMiles, Mean VisibilityMiles, Min VisibilityMiles, Max Wind SpeedMPH, Mean Wind SpeedMPH, Max Gust SpeedMPH,PrecipitationIn, CloudCover, Events, WindDirDegrees
2013-8-1,77,65,54,60,55,52,100,74,44,29.94,29.91,29.86,10,9,0,15,4,28,0.00,2,,286
2013-8-2,78,65,53,58,54,49,97,68,37,29.96,29.86,29.81,10,10,10,15,3,25,0.00,2,,302
2013-8-3,76,61,47,56,51,46,97,71,43,30.15,30.05,29.97,10,10,10,9,2,,0.00,2,,323
2013-8-4,69,56,45,54,50,45,98,75,45,30.24,30.18,30.11,10,10,10,8,2,,0.00,1,,93
2013-8-5,72,60,48,63,56,47,98,81,63,30.11,29.96,29.84,10,10,10,9,2,,0.00,6,,179
2013-8-6,81,68,57,67,62,57,99,81,51,29.85,29.80,29.69,10,10,2,10,3,18,0.00,5,,209
2013-8-7,75,64,54,62,58,52,100,80,55,30.02,29.84,29.68,10,9,2,20,8,47,0.87,5,,326
2013-8-8,74,60,46,57,53,45,99,74,46,30.06,30.02,29.98,10,10,10,8,2,,0.00,0,,180
2013-8-9,77,64,50,59,53,48,96,69,39,30.06,29.97,29.93,10,10,7,15,3,23,0.00,5,,290
2013-8-10,73,62,52,58,55,51,95,76,48,30.15,30.11,30.07,10,10,10,8,1,,0.00,6,,254
2013-8-11,73,62,50,59,55,49,97,80,54,30.11,30.07,30.02,10,10,10,9,2,,0.00,0,,212
2013-8-12,78,64,50,63,56,46,100,80,51,30.05,29.96,29.89,10,7,0,12,3,22,0.00,6,,341
2013-8-13,67,55,43,49,46,42,95,73,48,30.17,30.10,30.04,10,10,10,12,3,21,0.00,3,,357
2013-8-14,67,52,38,53,46,38,100,75,47,30.22,30.17,30.11,10,10,10,8,2,,0.00,2,,188
2013-8-15,79,62,45,59,50,44,99,70,34,30.12,30.09,30.05,10,10,10,10,2,,0.00,3,,282
2013-8-16,79,62,46,59,53,46,98,73,40,30.18,30.15,30.10,10,10,1,8,1,,0.00,1,,145
2013-8-17,81,64,47,63,55,46,98,73,41,30.23,30.19,30.15,10,10,10,9,2,,0.00,2,,172
2013-8-18,81,66,51,64,56,50,98,71,40,30.20,30.14,30.06,10,10,10,9,2,,0.00,2,,173
2013-8-19,83,67,52,61,58,52,99,70,43,30.07,30.02,29.96,10,10,3,16,3,24,0.00,0,,231
2013-8-20,88,73,58,67,63,57,97,72,46,30.04,29.99,29.95,10,10,7,13,4,17,0.03,1,,204
2013-8-21,89,76,63,72,67,61,100,73,55,29.99,29.93,29.83,10,10,1,17,6,39,0.90,3,,219
2013-8-22,78,67,57,64,59,48,100,80,36,30.16,30.07,29.97,10,8,0,8,2,,0.09,1,,63
2013-8-23,75,62,49,62,55,49,99,77,41,30.22,30.18,30.15,10,10,10,8,2,,0.00,0,,104
2013-8-24,81,66,52,63,58,51,98,72,44,30.26,30.20,30.13,10,10,10,12,3,,0.00,1,,172
2013-8-25,91,80,69,73,68,62,79,67,52,30.13,30.06,29.99,10,10,10,16,8,23,0.00,0,,218
2013-8-26,85,77,69,73,69,62,95,77,60,30.10,29.98,29.90,10,10,5,20,7,43,0.20,3,,233
2013-8-27,85,76,68,76,70,68,99,92,72,29.98,29.87,29.81,10,8,2,13,5,20,0.71,6,,78
2013-8-28,80,74,67,72,69,67,99,88,66,30.05,29.99,29.89,10,8,2,6,3,,0.00,5,,36
2013-8-29,86,74,61,72,68,62,99,83,54,30.09,30.03,29.96,10,9,0,8,2,,0.00,1,,176
2013-8-30,81,72,63,73,66,61,98,81,61,30.02,29.85,29.79,10,10,5,14,7,21,0.21,4,,320
2013-8-31,75,67,59,66,62,59,100,88,68,29.92,29.87,29.79,10,9,0,8,3,,0.00,4,,20